createdAt,value
2023-01-17T00:02:24.270Z,3.41
2023-01-17T00:05:10.386Z,3.42
2023-01-17T00:07:56.509Z,3.40
2023-01-17T00:10:27.415Z,3.39
2023-01-17T00:13:00.164Z,3.37
2023-01-17T00:15:30.660Z,3.35
2023-01-17T00:17:59.209Z,3.30
2023-01-17T00:20:49.450Z,3.29
2023-01-17T00:23:40.913Z,3.26
2023-01-17T00:26:18.750Z,3.24
2023-01-17T00:28:48.213Z,3.25
2023-01-17T00:31:17.113Z,3.24
2023-01-17T00:33:45.066Z,3.23
2023-01-17T00:36:15.676Z,3.24
2023-01-17T00:38:43.549Z,3.28
2023-01-17T00:41:14.425Z,3.34
2023-01-17T00:44:00.493Z,3.35
2023-01-17T00:46:46.712Z,3.37
2023-01-17T00:49:32.780Z,3.35
2023-01-17T00:52:19.267Z,3.34
2023-01-17T00:55:05.346Z,3.33
2023-01-17T00:57:51.490Z,3.33
2023-01-17T01:00:38.174Z,3.31
2023-01-17T01:03:29.355Z,3.30
2023-01-17T01:06:16.079Z,3.28
2023-01-17T01:09:02.798Z,3.26
2023-01-17T01:11:48.837Z,3.25
2023-01-17T01:14:35.438Z,3.22
2023-01-17T01:17:22.671Z,3.17
2023-01-17T01:20:08.804Z,3.14
2023-01-17T01:22:55.060Z,3.14
2023-01-17T01:25:41.067Z,3.10
2023-01-17T01:28:30.627Z,3.10
2023-01-17T01:31:23.763Z,3.07
2023-01-17T01:33:52.616Z,3.05
2023-01-17T01:36:20.825Z,3.05
2023-01-17T01:38:49.586Z,3.07
2023-01-17T01:41:17.450Z,3.11
2023-01-17T01:43:54.307Z,3.12
2023-01-17T01:46:40.913Z,3.12
2023-01-17T01:49:20.706Z,3.13
2023-01-17T01:51:55.549Z,3.12
2023-01-17T01:54:33.220Z,3.10
2023-01-17T01:57:04.169Z,3.06
2023-01-17T01:59:33.510Z,3.03
2023-01-17T02:02:01.567Z,2.98
2023-01-17T02:04:29.306Z,2.96
2023-01-17T02:07:14.699Z,2.94
2023-01-17T02:09:42.573Z,2.89
2023-01-17T02:12:11.750Z,2.88
2023-01-17T02:14:39.734Z,2.86
2023-01-17T02:17:39.549Z,2.86
2023-01-17T02:20:44.869Z,2.83
2023-01-17T02:24:00.728Z,2.79
2023-01-17T02:26:59.713Z,2.76
2023-01-17T02:30:25.743Z,2.74
2023-01-17T02:33:03.357Z,2.73
2023-01-17T02:36:03.989Z,2.74
2023-01-17T02:39:09.989Z,2.73
2023-01-17T02:41:42.913Z,2.69
2023-01-17T02:44:16.345Z,2.68
2023-01-17T02:46:56.179Z,2.69
2023-01-17T02:49:29.514Z,2.68
2023-01-17T02:52:46.382Z,2.66
2023-01-17T02:55:35.222Z,2.61
2023-01-17T02:58:41.521Z,2.59
2023-01-17T03:01:18.068Z,2.58
2023-01-17T03:04:10.969Z,2.56
2023-01-17T03:06:47.496Z,2.53
2023-01-17T03:09:16.739Z,2.50
2023-01-17T03:11:44.973Z,2.48
2023-01-17T03:14:12.709Z,2.44
2023-01-17T03:16:41.051Z,2.40
2023-01-17T03:19:09.295Z,2.37
2023-01-17T03:21:37.009Z,2.33
2023-01-17T03:24:05.169Z,2.32
2023-01-17T03:26:32.970Z,2.29
2023-01-17T03:29:01.751Z,2.29
2023-01-17T03:31:29.417Z,2.28
2023-01-17T03:33:57.021Z,2.28
2023-01-17T03:36:24.662Z,2.27
2023-01-17T03:38:52.329Z,2.27
2023-01-17T03:41:19.932Z,2.25
2023-01-17T03:43:47.769Z,2.23
2023-01-17T03:46:28.151Z,2.20
2023-01-17T03:48:55.827Z,2.18
2023-01-17T03:51:23.683Z,2.17
2023-01-17T03:53:51.380Z,2.15
2023-01-17T03:56:19.393Z,2.13
2023-01-17T03:58:47.122Z,2.12
2023-01-17T04:01:15.015Z,2.12
2023-01-17T04:03:42.709Z,2.11
2023-01-17T04:06:10.354Z,2.08
2023-01-17T04:08:38.132Z,2.05
2023-01-17T04:11:05.762Z,2.04
2023-01-17T04:13:33.419Z,2.03
2023-01-17T04:16:01.073Z,2.01
2023-01-17T04:18:28.808Z,2.00
2023-01-17T04:20:56.563Z,2.02
2023-01-17T04:23:24.154Z,2.02
2023-01-17T04:25:51.757Z,2.01
2023-01-17T04:28:19.373Z,1.99
2023-01-17T04:30:47.131Z,1.97
2023-01-17T04:33:15.013Z,1.96
2023-01-17T04:35:42.716Z,1.96
2023-01-17T04:38:10.442Z,1.96
2023-01-17T04:40:38.186Z,1.94
2023-01-17T04:43:05.801Z,1.95
2023-01-17T04:45:33.424Z,1.95
2023-01-17T04:48:06.099Z,1.95
2023-01-17T04:50:33.860Z,1.95
2023-01-17T04:53:01.474Z,1.94
2023-01-17T04:55:29.334Z,1.92
2023-01-17T04:57:57.096Z,1.90
2023-01-17T05:00:25.469Z,1.91
2023-01-17T05:02:53.189Z,1.91
2023-01-17T05:05:21.144Z,1.91
2023-01-17T05:07:56.759Z,1.89
2023-01-17T05:10:25.565Z,1.90
2023-01-17T05:12:58.980Z,1.90
2023-01-17T05:15:27.321Z,1.90
2023-01-17T05:17:56.090Z,1.89
2023-01-17T05:20:26.646Z,1.88
2023-01-17T05:22:56.557Z,1.87
2023-01-17T05:25:27.641Z,1.86
2023-01-17T05:27:56.709Z,1.86
2023-01-17T05:30:24.271Z,1.85
2023-01-17T05:32:54.862Z,1.85
2023-01-17T05:35:29.492Z,1.84
2023-01-17T05:37:57.229Z,1.81
2023-01-17T05:40:28.729Z,1.77
2023-01-17T05:42:59.431Z,1.75
2023-01-17T05:45:35.671Z,1.74
2023-01-17T05:48:04.231Z,1.74
2023-01-17T05:50:36.091Z,1.76
2023-01-17T05:53:12.429Z,1.77
2023-01-17T05:55:41.463Z,1.77
2023-01-17T05:58:17.590Z,1.77
2023-01-17T06:00:46.329Z,1.79
2023-01-17T06:03:15.237Z,1.81
2023-01-17T06:05:44.227Z,1.81
2023-01-17T06:08:11.984Z,1.82
2023-01-17T06:10:39.671Z,1.83
2023-01-17T06:13:14.660Z,1.84
2023-01-17T06:15:42.486Z,1.84
2023-01-17T06:18:14.031Z,1.85
2023-01-17T06:20:42.479Z,1.86
2023-01-17T06:23:13.542Z,1.89
2023-01-17T06:25:46.193Z,1.90
2023-01-17T06:28:17.758Z,1.91
2023-01-17T06:30:46.242Z,1.92
2023-01-17T06:33:14.312Z,1.93
2023-01-17T06:35:50.891Z,1.95
2023-01-17T06:38:19.673Z,1.96
2023-01-17T06:40:48.081Z,1.98
2023-01-17T06:43:16.135Z,2.00
2023-01-17T06:45:43.939Z,2.01
2023-01-17T06:48:11.712Z,2.00
2023-01-17T06:50:43.351Z,2.00
2023-01-17T06:53:11.072Z,2.00
2023-01-17T06:55:39.673Z,2.01
2023-01-17T06:58:09.664Z,2.00
2023-01-17T07:00:40.353Z,2.00
2023-01-17T07:03:19.407Z,2.00
2023-01-17T07:05:48.397Z,1.99
2023-01-17T07:08:17.643Z,2.00
2023-01-17T07:10:47.410Z,2.01
2023-01-17T07:13:15.332Z,2.00
2023-01-17T07:15:43.361Z,2.01
2023-01-17T07:18:11.203Z,2.02
2023-01-17T07:20:39.264Z,2.05
2023-01-17T07:23:07.093Z,2.09
2023-01-17T07:25:34.944Z,2.11
2023-01-17T07:28:03.060Z,2.12
2023-01-17T07:30:30.803Z,2.13
2023-01-17T07:32:58.633Z,2.17
2023-01-17T07:35:27.423Z,2.20
2023-01-17T07:37:57.780Z,2.21
2023-01-17T07:40:26.426Z,2.23
2023-01-17T07:43:12.726Z,2.26
2023-01-17T07:45:49.941Z,2.28
2023-01-17T07:48:21.563Z,2.31
2023-01-17T07:50:57.426Z,2.34
2023-01-17T07:53:29.932Z,2.38
2023-01-17T07:56:06.977Z,2.41
2023-01-17T07:58:35.796Z,2.42
2023-01-17T08:01:13.776Z,2.41
2023-01-17T08:03:42.640Z,2.41
2023-01-17T08:06:25.514Z,2.42
2023-01-17T08:08:58.390Z,2.45
2023-01-17T08:11:26.321Z,2.48
2023-01-17T08:13:59.666Z,2.51
2023-01-17T08:16:29.056Z,2.54
2023-01-17T08:18:56.728Z,2.58
2023-01-17T08:21:24.688Z,2.63
2023-01-17T08:23:52.452Z,2.69
2023-01-17T08:26:21.589Z,2.76
2023-01-17T08:29:00.426Z,2.84
2023-01-17T08:31:32.951Z,2.92
2023-01-17T08:34:00.898Z,2.97
2023-01-17T08:36:30.631Z,3.01
2023-01-17T08:38:58.493Z,3.04
2023-01-17T08:41:27.223Z,3.06
2023-01-17T08:43:54.955Z,3.09
2023-01-17T08:46:22.786Z,3.08
2023-01-17T08:48:59.520Z,3.12
2023-01-17T08:51:28.105Z,3.14
2023-01-17T08:53:56.561Z,3.16
2023-01-17T08:56:25.518Z,3.16
2023-01-17T08:58:53.300Z,3.17
2023-01-17T09:01:21.292Z,3.21
2023-01-17T09:03:50.578Z,3.27
2023-01-17T09:06:18.302Z,3.36
2023-01-17T09:08:47.206Z,3.41
2023-01-17T09:11:17.370Z,3.48
2023-01-17T09:13:45.138Z,3.62
2023-01-17T09:16:13.004Z,3.75
2023-01-17T09:18:40.927Z,3.81
2023-01-17T09:21:15.783Z,3.85
2023-01-17T09:23:43.923Z,3.88
2023-01-17T09:26:26.032Z,3.89
2023-01-17T09:28:54.669Z,3.90
2023-01-17T09:31:23.899Z,3.96
2023-01-17T09:33:53.642Z,4.06
2023-01-17T09:36:23.434Z,4.17
2023-01-17T09:38:57.227Z,4.24
2023-01-17T09:41:36.963Z,4.36
2023-01-17T09:44:20.317Z,4.48
2023-01-17T09:46:51.695Z,4.60
2023-01-17T09:49:43.686Z,4.74
2023-01-17T09:52:20.320Z,4.94
2023-01-17T09:54:50.186Z,5.14
2023-01-17T09:57:58.624Z,5.27
2023-01-17T10:00:35.204Z,5.40
2023-01-17T10:03:49.035Z,5.52
2023-01-17T10:06:51.311Z,5.60
2023-01-17T10:09:45.662Z,5.75
2023-01-17T10:12:32.628Z,5.91
2023-01-17T10:15:23.852Z,6.07
2023-01-17T10:17:57.303Z,6.30
2023-01-17T10:20:52.132Z,6.54
2023-01-17T10:23:31.937Z,6.85
2023-01-17T10:26:21.743Z,7.03
2023-01-17T10:28:52.771Z,7.17
2023-01-17T10:31:27.272Z,7.32
2023-01-17T10:34:06.434Z,7.44
2023-01-17T10:36:46.211Z,7.62
2023-01-17T10:39:28.746Z,7.85
2023-01-17T10:42:06.065Z,8.13
2023-01-17T10:45:03.797Z,8.34
2023-01-17T10:47:37.153Z,8.40
2023-01-17T10:50:05.425Z,8.42
2023-01-17T10:53:15.861Z,8.50
2023-01-17T10:55:52.766Z,8.72
2023-01-17T10:58:20.958Z,9.09
2023-01-17T11:01:00.634Z,9.41
2023-01-17T11:03:28.795Z,9.42
2023-01-17T11:06:22.395Z,9.37
2023-01-17T11:08:58.670Z,9.71
2023-01-17T11:11:33.078Z,10.84
2023-01-17T11:14:15.264Z,12.10
2023-01-17T11:16:43.451Z,13.38
2023-01-17T11:19:29.905Z,14.51
2023-01-17T11:22:04.159Z,15.36
2023-01-17T11:24:38.254Z,15.27
2023-01-17T11:27:22.111Z,14.57
2023-01-17T11:30:06.622Z,13.84
2023-01-17T11:32:35.194Z,13.27
2023-01-17T11:35:25.071Z,12.97
2023-01-17T11:38:11.308Z,12.48
2023-01-17T11:40:48.698Z,12.01
2023-01-17T11:43:27.188Z,11.55
2023-01-17T11:46:17.189Z,11.02
2023-01-17T11:49:00.272Z,10.45
2023-01-17T11:51:55.604Z,9.88
2023-01-17T11:54:41.820Z,9.42
2023-01-17T11:57:32.456Z,9.06
2023-01-17T12:00:24.045Z,8.73
2023-01-17T12:03:50.232Z,8.50
2023-01-17T12:06:33.117Z,8.25
2023-01-17T12:09:29.986Z,8.09
2023-01-17T12:12:49.545Z,7.94
2023-01-17T12:15:59.435Z,7.87
2023-01-17T12:19:00.486Z,7.85
2023-01-17T12:22:04.608Z,7.87
2023-01-17T12:25:01.222Z,7.86
2023-01-17T12:27:42.640Z,7.79
2023-01-17T12:30:50.764Z,7.67
2023-01-17T12:33:50.561Z,7.57
2023-01-17T12:36:30.646Z,7.47
2023-01-17T12:39:18.659Z,7.36
2023-01-17T12:42:42.176Z,7.31
2023-01-17T12:45:20.816Z,7.23
2023-01-17T12:47:56.204Z,7.23
2023-01-17T12:51:05.319Z,7.25
2023-01-17T12:54:10.174Z,7.23
2023-01-17T12:56:52.034Z,7.21
2023-01-17T12:59:39.859Z,7.16
2023-01-17T13:02:58.489Z,7.09
2023-01-17T13:05:41.201Z,7.00
2023-01-17T13:08:38.261Z,6.99
2023-01-17T13:11:34.882Z,7.01
2023-01-17T13:14:08.347Z,7.07
2023-01-17T13:17:11.053Z,7.11
2023-01-17T13:20:31.311Z,7.12
2023-01-17T13:23:52.723Z,7.10
2023-01-17T13:26:33.511Z,7.02
2023-01-17T13:29:39.174Z,6.95
2023-01-17T13:33:01.256Z,6.88
2023-01-17T13:36:10.103Z,6.81
2023-01-17T13:39:07.465Z,6.79
2023-01-17T13:41:54.446Z,6.81
2023-01-17T13:44:27.025Z,6.85
2023-01-17T13:47:06.076Z,6.90
2023-01-17T13:49:50.951Z,6.96
2023-01-17T13:52:18.745Z,7.03
2023-01-17T13:54:49.510Z,7.09
2023-01-17T13:57:25.981Z,7.17
2023-01-17T13:59:57.130Z,7.23
2023-01-17T14:02:38.686Z,7.27
2023-01-17T14:05:29.714Z,7.25
2023-01-17T14:08:15.085Z,7.21
2023-01-17T14:11:04.982Z,7.20
2023-01-17T14:13:39.598Z,7.17
2023-01-17T14:16:29.817Z,7.12
2023-01-17T14:18:57.748Z,7.03
2023-01-17T14:21:31.685Z,6.98
2023-01-17T14:24:03.608Z,6.92
2023-01-17T14:27:14.281Z,6.89
2023-01-17T14:29:42.159Z,6.75
2023-01-17T14:32:29.735Z,6.71
2023-01-17T14:34:58.665Z,6.69
2023-01-17T14:37:32.338Z,6.69
2023-01-17T14:40:01.016Z,6.71
2023-01-17T14:42:32.508Z,6.71
2023-01-17T14:45:12.887Z,6.68
2023-01-17T14:47:44.240Z,6.62
2023-01-17T14:50:17.905Z,6.58
2023-01-17T14:52:45.746Z,6.51
2023-01-17T14:55:18.632Z,6.46
2023-01-17T14:57:55.499Z,6.40
2023-01-17T15:00:28.573Z,6.32
2023-01-17T15:03:11.834Z,6.24
2023-01-17T15:05:45.001Z,6.16
2023-01-17T15:08:18.333Z,6.07
2023-01-17T15:10:59.874Z,5.99
2023-01-17T15:13:44.255Z,5.91
2023-01-17T15:16:38.260Z,5.83
2023-01-17T15:19:14.636Z,5.78
2023-01-17T15:21:45.285Z,5.76
2023-01-17T15:24:36.604Z,5.73
2023-01-17T15:27:05.764Z,5.66
2023-01-17T15:29:35.169Z,5.62
2023-01-17T15:32:06.432Z,5.58
2023-01-17T15:34:44.051Z,5.52
2023-01-17T15:37:41.287Z,5.44
2023-01-17T15:40:23.904Z,5.35
2023-01-17T15:42:57.860Z,5.27
2023-01-17T15:45:29.863Z,5.22
2023-01-17T15:49:00.736Z,5.18
2023-01-17T15:51:36.420Z,5.07
2023-01-17T15:54:28.361Z,5.00
2023-01-17T15:57:36.572Z,4.92
2023-01-17T16:00:17.982Z,4.84
2023-01-17T16:03:00.385Z,4.81
2023-01-17T16:05:32.631Z,4.80
2023-01-17T16:08:04.428Z,4.71
2023-01-17T16:10:36.551Z,4.69
2023-01-17T16:13:06.291Z,4.69
2023-01-17T16:15:36.320Z,4.61
2023-01-17T16:18:15.039Z,4.57
2023-01-17T16:20:53.486Z,4.52
2023-01-17T16:23:21.269Z,4.48
2023-01-17T16:25:49.014Z,4.44
2023-01-17T16:28:16.764Z,4.40
2023-01-17T16:30:45.643Z,4.36
2023-01-17T16:33:14.520Z,4.34
2023-01-17T16:35:42.463Z,4.29
2023-01-17T16:38:14.899Z,4.26
2023-01-17T16:40:45.783Z,4.22
2023-01-17T16:43:16.738Z,4.18
2023-01-17T16:45:53.402Z,4.14
2023-01-17T16:48:23.240Z,4.08
2023-01-17T16:50:52.389Z,4.05
2023-01-17T16:53:25.627Z,4.05
2023-01-17T16:56:04.916Z,4.05
2023-01-17T16:58:32.757Z,4.03
2023-01-17T17:01:02.051Z,4.00
2023-01-17T17:03:30.238Z,3.96
2023-01-17T17:06:01.330Z,3.92
2023-01-17T17:08:29.399Z,3.88
2023-01-17T17:11:32.854Z,3.85
2023-01-17T17:14:01.552Z,3.79
2023-01-17T17:16:30.080Z,3.74
2023-01-17T17:19:05.599Z,3.72
2023-01-17T17:21:36.943Z,3.70
2023-01-17T17:24:05.246Z,3.67
2023-01-17T17:26:36.447Z,3.65
2023-01-17T17:29:09.738Z,3.63
2023-01-17T17:31:42.054Z,3.59
2023-01-17T17:34:12.165Z,3.54
2023-01-17T17:36:41.312Z,3.49
2023-01-17T17:39:16.753Z,3.44
2023-01-17T17:41:45.719Z,3.35
2023-01-17T17:44:13.782Z,3.26
2023-01-17T17:46:42.494Z,3.21
2023-01-17T17:49:10.283Z,3.15
2023-01-17T17:51:40.235Z,3.08
2023-01-17T17:54:12.267Z,3.04
2023-01-17T17:56:45.741Z,2.97
2023-01-17T17:59:17.651Z,2.89
2023-01-17T18:01:47.232Z,2.82
2023-01-17T18:04:15.350Z,2.72
2023-01-17T18:06:44.043Z,2.58
2023-01-17T18:09:14.392Z,2.50
2023-01-17T18:11:43.636Z,2.43
2023-01-17T18:14:14.637Z,2.40
2023-01-17T18:16:44.859Z,2.41
2023-01-17T18:19:20.646Z,2.43
2023-01-17T18:21:50.818Z,2.44
2023-01-17T18:24:22.341Z,2.41
2023-01-17T18:26:57.243Z,2.38
2023-01-17T18:29:27.153Z,2.35
2023-01-17T18:31:56.014Z,2.32
2023-01-17T18:34:28.686Z,2.26
2023-01-17T18:36:57.479Z,2.18
2023-01-17T18:39:29.039Z,2.08
2023-01-17T18:41:57.693Z,2.02
2023-01-17T18:44:26.880Z,1.97
2023-01-17T18:46:57.498Z,1.95
2023-01-17T18:49:25.322Z,1.92
2023-01-17T18:51:53.243Z,1.88
2023-01-17T18:54:21.595Z,1.84
2023-01-17T18:56:50.546Z,1.84
2023-01-17T18:59:19.082Z,1.86
2023-01-17T19:01:47.102Z,1.88
2023-01-17T19:04:16.636Z,1.90
2023-01-17T19:06:48.987Z,1.89
2023-01-17T19:09:16.986Z,1.87
2023-01-17T19:11:46.957Z,1.76
2023-01-17T19:14:15.264Z,1.70
2023-01-17T19:16:43.459Z,1.65
2023-01-17T19:19:14.846Z,1.64
2023-01-17T19:21:42.863Z,1.66
2023-01-17T19:24:14.988Z,1.69
2023-01-17T19:26:44.917Z,1.69
2023-01-17T19:29:13.649Z,1.66
2023-01-17T19:31:42.621Z,1.64
2023-01-17T19:34:18.291Z,1.64
2023-01-17T19:36:46.617Z,1.65
2023-01-17T19:39:14.604Z,1.63
2023-01-17T19:41:45.875Z,1.58
2023-01-17T19:44:14.496Z,1.52
2023-01-17T19:46:43.582Z,1.43
2023-01-17T19:49:11.664Z,1.35
2023-01-17T19:51:39.681Z,1.30
2023-01-17T19:54:07.736Z,1.28
2023-01-17T19:56:35.676Z,1.27
2023-01-17T19:59:03.585Z,1.23
2023-01-17T20:01:33.629Z,1.18
2023-01-17T20:04:03.667Z,1.11
2023-01-17T20:06:36.361Z,1.04
2023-01-17T20:09:06.466Z,1.00
2023-01-17T20:11:34.551Z,0.96
2023-01-17T20:14:06.953Z,0.93
2023-01-17T20:16:54.892Z,0.89
2023-01-17T20:19:24.521Z,0.84
2023-01-17T20:21:53.381Z,0.84
2023-01-17T20:24:23.837Z,0.86
2023-01-17T20:26:57.544Z,0.86
2023-01-17T20:29:26.673Z,0.86
2023-01-17T20:31:54.569Z,0.87
2023-01-17T20:34:25.205Z,0.86
2023-01-17T20:36:58.663Z,0.85
2023-01-17T20:39:27.024Z,0.84
2023-01-17T20:41:55.514Z,0.81
2023-01-17T20:44:23.479Z,0.76
2023-01-17T20:46:51.379Z,0.70
2023-01-17T20:49:19.680Z,0.65
2023-01-17T20:51:47.846Z,0.60
2023-01-17T20:54:18.491Z,0.53
2023-01-17T20:56:47.188Z,0.48
2023-01-17T20:59:19.208Z,0.42
2023-01-17T21:01:49.660Z,0.36
2023-01-17T21:04:24.930Z,0.31
2023-01-17T21:06:52.891Z,0.26
2023-01-17T21:09:21.405Z,0.21
2023-01-17T21:11:51.503Z,0.19
2023-01-17T21:14:21.072Z,0.18
2023-01-17T21:16:49.705Z,0.16
2023-01-17T21:19:17.608Z,0.12
2023-01-17T21:21:45.652Z,0.10
2023-01-17T21:24:18.462Z,0.06
2023-01-17T21:26:46.698Z,0.02
2023-01-17T21:29:15.447Z,-0.00
2023-01-17T21:31:44.653Z,-0.00
2023-01-17T21:34:13.116Z,0.01
2023-01-17T21:36:42.803Z,0.02
2023-01-17T21:39:19.212Z,0.01
2023-01-17T21:41:50.249Z,-0.02
2023-01-17T21:44:21.489Z,-0.08
2023-01-17T21:46:56.179Z,-0.14
2023-01-17T21:49:24.570Z,-0.19
2023-01-17T21:51:52.590Z,-0.22
2023-01-17T21:54:42.701Z,-0.24
2023-01-17T21:57:39.240Z,-0.28
2023-01-17T22:00:13.967Z,-0.32
2023-01-17T22:02:45.841Z,-0.34
2023-01-17T22:05:15.955Z,-0.36
2023-01-17T22:08:04.797Z,-0.39
2023-01-17T22:10:43.788Z,-0.44
2023-01-17T22:13:17.205Z,-0.47
2023-01-17T22:15:45.793Z,-0.49
2023-01-17T22:18:14.658Z,-0.52
2023-01-17T22:20:42.534Z,-0.54
2023-01-17T22:23:12.550Z,-0.55
2023-01-17T22:25:40.566Z,-0.56
2023-01-17T22:28:08.731Z,-0.57
2023-01-17T22:30:37.095Z,-0.56
2023-01-17T22:33:05.469Z,-0.58
2023-01-17T22:35:33.897Z,-0.60
2023-01-17T22:38:11.912Z,-0.61
2023-01-17T22:40:41.881Z,-0.62
2023-01-17T22:43:12.193Z,-0.63
2023-01-17T22:45:42.795Z,-0.61
2023-01-17T22:48:10.820Z,-0.61
2023-01-17T22:50:38.960Z,-0.63
2023-01-17T22:53:07.830Z,-0.64
2023-01-17T22:55:35.930Z,-0.63
2023-01-17T22:58:04.103Z,-0.58
2023-01-17T23:00:32.167Z,-0.52
2023-01-17T23:03:00.598Z,-0.47
2023-01-17T23:05:28.833Z,-0.43
2023-01-17T23:07:56.675Z,-0.42
2023-01-17T23:10:43.517Z,-0.39
2023-01-17T23:13:15.878Z,-0.41
2023-01-17T23:16:02.113Z,-0.42
2023-01-17T23:18:48.111Z,-0.40
2023-01-17T23:21:15.977Z,-0.35
2023-01-17T23:23:43.931Z,-0.30
2023-01-17T23:26:12.010Z,-0.26
2023-01-17T23:28:40.094Z,-0.24
2023-01-17T23:31:10.340Z,-0.25
2023-01-17T23:33:38.281Z,-0.24
2023-01-17T23:36:08.720Z,-0.23
2023-01-17T23:38:40.231Z,-0.22
2023-01-17T23:41:27.119Z,-0.20
2023-01-17T23:43:58.450Z,-0.17
2023-01-17T23:46:28.086Z,-0.16
2023-01-17T23:48:55.996Z,-0.12
2023-01-17T23:51:23.939Z,-0.10
2023-01-17T23:53:56.691Z,-0.06
2023-01-17T23:56:24.677Z,-0.05
2023-01-17T23:58:52.739Z,-0.04
